Latest Coastal Weather Observations for Port Augusta

IDS60701

Issued at 7:15 pm CDT Sunday 23 November 2014 (issued every 10 minutes, with the page automatically refreshed every 10 minutes)

About coastal observations | Map of coastal stations | Coastal observations for SA | Marine services | Other Formats
Station Details ID: 018201 Name: PORT AUGUSTA AERO Lat: -32.51 Lon: 137.72 Height: 13.97 m
Data from the previous 72 hours. | See also: Recent months at Port Augusta
Date/Time
CDT
Temp

°C
Wind Pressure Rain
since 9am
mm
Weather Cloud Vis
km
Sea
Height
m
Swell
Dir
 
Speed
knots
Gust
knots
hPa Trend Height
m
Period
s
Dir
23/07:00pm 31.5 SW 7 10 1005.4 - 0.8 - Partly cloudy - - - - -
23/06:30pm 32.5 W 6 8 1005.3 - 0.6 - - - - - - -
23/06:00pm 31.7 W 5 9 1005.4 - 0.6 - - - - - - -
23/05:30pm 30.8 NE 5 9 1005.0 - 0.6 - Partly cloudy - - - - -
23/05:00pm 30.7 NNE 11 16 1005.4 - 0.6 - - - - - - -
23/04:57pm 30.9 NNE 10 16 1005.5 - 0.6 - - - - - - -
23/04:30pm 25.9 ENE 13 19 1005.8 - 0.6 - Partly cloudy - - - - -
23/04:27pm 26.0 E 11 19 1005.9 - 0.6 - Partly cloudy - - - - -
23/04:00pm 26.9 ENE 10 12 1008.0 - 0.6 - Partly cloudy - - - - -
23/03:30pm 28.9 W 9 17 1009.1 - 0.6 - Partly cloudy - - - - -
23/03:00pm 28.9 N 12 16 1010.3 - 0.6 - Mostly cloudy - - - - -
23/02:30pm 24.3 ENE 12 14 1009.4 - 0.6 - Partly cloudy - - - - -
23/02:29pm 24.4 ENE 12 14 1009.5 - 0.2 - Partly cloudy - - - - -
23/02:00pm 29.2 WNW 13 17 1011.5 - 0.0 - - - - - - -
23/01:30pm 29.0 W 12 17 1011.9 - 0.0 - Partly cloudy - - - - -
23/01:00pm 28.6 W 8 12 1012.0 - 0.0 - Partly cloudy - - - - -
23/12:30pm 29.7 W 11 15 1012.0 - 0.0 - Partly cloudy - - - - -
23/12:00pm 28.6 ESE 9 12 1010.5 - 0.0 - Mostly clear - - - - -
23/11:30am 29.7 ESE 2 5 1011.6 - 0.0 - - - - - - -
23/11:00am 29.2 SE 6 8 1010.7 - 0.0 - - - - - - -
23/10:30am 28.3 SE 5 9 1011.0 - 0.0 - - - - - - -
23/10:00am 25.8 SE 7 11 1011.2 - 0.0 - - - - - - -
23/09:30am 23.5 ESE 9 12 1011.5 - 0.0 - - - - - - -
23/09:00am 22.9 ESE 10 12 1011.9 - 0.0 - - - - - - -
23/08:30am 21.1 ESE 12 14 1011.9 - 0.0 - - - - - - -
23/08:00am 19.9 SE 12 15 1011.7 - 0.0 - - - - - - -
23/07:30am 19.2 SE 12 17 1011.5 - 0.0 - - - - - - -
23/07:00am 18.8 SSE 14 19 1011.4 - 0.0 - - - - - - -
23/06:30am 17.8 SSE 14 18 1010.9 - 0.0 - - - - - - -
23/06:00am 18.0 SSE 14 18 1010.8 - 0.0 - - - - - - -
23/05:30am 17.9 SSE 14 18 1010.5 - 0.0 - - - - - - -
23/05:00am 18.1 SSE 13 20 1010.4 - 0.0 - - - - - - -
23/04:30am 18.4 S 13 17 1011.0 - 0.0 - - - - - - -
23/04:00am 18.6 S 14 19 1010.9 - 0.0 - - - - - - -
23/03:30am 18.5 S 14 19 1011.2 - 0.0 - - - - - - -
23/03:00am 18.8 S 16 22 1010.9 - 0.0 - - - - - - -
23/02:30am 19.1 S 14 17 1011.6 - 0.0 - - - - - - -
23/02:00am 19.5 SSE 13 18 1011.9 - 0.0 - - - - - - -
23/01:30am 19.9 S 14 17 1011.5 - 0.0 - - - - - - -
23/01:00am 20.2 S 14 18 1011.5 - 0.0 - - - - - - -
23/12:30am 20.8 S 15 19 1011.5 - 0.0 - - - - - - -
23/12:00am 20.5 SSW 12 16 1011.5 - 0.0 - - - - - - -
 
Date/Time
CDT
Temp

°C
Wind Pressure Rain
since 9am
mm
Weather Cloud Vis
km
Sea
Height
m
Swell
Dir
 
Speed
knots
Gust
knots
hPa Trend Height
m
Period
s
Dir
22/11:30pm 21.3 SSW 14 19 1011.5 - 0.0 - - - - - - -
22/11:00pm 22.1 SSW 15 22 1011.1 - 0.0 - - - - - - -
22/10:30pm 23.5 S 17 22 1010.6 - 0.0 - - - - - - -
22/10:00pm 23.8 S 20 26 1010.3 - 0.0 - - - - - - -
22/09:30pm 23.9 S 21 27 1009.8 - 0.0 - - - - - - -
22/09:00pm 24.1 SSE 18 24 1009.0 - 0.0 - - - - - - -
22/08:30pm 25.0 SSE 21 29 1008.1 - 0.0 - - - - - - -
22/08:17pm 25.5 SSE 19 31 1007.8 - 0.0 - - - - - - -
22/08:00pm 25.9 SSE 21 27 1007.4 - 0.0 - - - - - - -
22/07:30pm 25.4 SSE 21 28 1006.7 - 0.0 - - - - - - -
22/07:00pm 26.0 SSE 21 31 1006.3 - 0.0 - - - - - - -
22/06:52pm 26.3 SSE 21 31 1005.9 - 0.0 - - - - - - -
22/06:30pm 28.3 SSE 23 32 1005.5 - 0.0 - - - - - - -
22/06:24pm 29.2 SSE 22 32 1005.4 - 0.0 - - - - - - -
22/06:00pm 31.2 SSE 23 31 1004.9 - 0.0 - - - - - - -
22/05:30pm 31.8 SSE 22 28 1004.6 - 0.0 - - - - - - -
22/05:00pm 33.2 S 21 30 1004.1 - 0.0 - - - - - - -
22/04:54pm 33.6 S 23 33 1004.3 - 0.0 - - - - - - -
22/04:30pm 33.4 SSE 23 29 1003.5 - 0.0 - - - - - - -
22/04:08pm 34.3 SE 18 31 1002.9 - 0.0 - - - - - - -
22/04:00pm 32.7 SE 18 25 1002.8 - 0.0 - - - - - - -
22/03:30pm 35.7 SE 17 26 1002.3 - 0.0 - Partly cloudy - - - - -
22/03:23pm 37.6 SE 15 25 1002.3 - 0.0 - Partly cloudy - - - - -
22/03:02pm 36.9 ESE 10 20 1002.9 - 0.0 - - - - - - -
22/03:00pm 42.8 NNW 10 22 1002.8 - 0.0 - - - - - - -
22/02:45pm 41.8 WNW 15 25 1002.9 - 0.0 - - - - - - -
22/02:30pm 41.9 WNW 16 27 1003.1 - 0.0 - - - - - - -
22/02:04pm 41.7 NNW 19 29 1003.2 - 0.0 - - - - - - -
22/02:00pm 40.9 NNW 19 26 1003.3 - 0.0 - - - - - - -
22/01:33pm 41.0 N 19 29 1003.5 - 0.0 - - - - - - -
22/01:30pm 40.4 N 22 30 1003.6 - 0.0 - - - - - - -
22/01:25pm 40.7 NNW 20 30 1003.6 - 0.0 - - - - - - -
22/01:00pm 39.9 N 22 30 1003.8 - 0.0 - - - - - - -
22/12:42pm 38.9 N 23 33 1004.1 - 0.0 - - - - - - -
22/12:30pm 38.8 N 23 30 1004.2 - 0.0 - - - - - - -
22/12:00pm 37.7 N 23 33 1004.7 - 0.0 - - - - - - -
22/11:57am 37.2 N 21 31 1004.7 - 0.0 - - - - - - -
22/11:30am 36.2 N 22 29 1005.1 - 0.0 - - - - - - -
22/11:00am 36.9 N 20 26 1005.3 - 0.0 - - - - - - -
22/10:30am 35.2 N 21 26 1005.7 - 0.0 - - - - - - -
22/10:18am 35.2 N 20 26 1005.6 - 0.0 - - - - - - -
22/10:00am 34.5 N 12 16 1005.6 - 0.0 - Partly cloudy - - - - -
22/09:30am 31.6 N 15 21 1005.8 - 0.0 - - - - - - -
22/09:00am 30.4 N 13 18 1006.1 - 0.0 - - - - - - -
22/08:30am 27.0 N 15 19 1006.7 - 0.0 - - - - - - -
22/08:00am 26.8 N 11 13 1006.6 - 0.0 - - - - - - -
22/07:30am 22.2 CALM 0 3 1006.9 - 0.0 - - - - - - -
22/07:00am 21.2 NNW 5 7 1006.9 - 0.0 - - - - - - -
22/06:30am 20.2 WSW 4 6 1006.0 - 0.0 - - - - - - -
22/06:00am 20.0 NW 3 5 1005.9 - 0.0 - - - - - - -
22/05:30am 19.8 W 5 6 1005.5 - 0.0 - - - - - - -
22/05:00am 19.7 WSW 5 5 1005.2 - 0.0 - - - - - - -
22/04:30am 19.3 SW 8 9 1004.8 - 0.0 - - - - - - -
22/04:00am 19.5 WSW 7 8 1005.1 - 0.0 - - - - - - -
22/03:30am 18.5 SW 5 7 1005.3 - 0.0 - - - - - - -
22/03:00am 18.2 SW 4 5 1005.8 - 0.0 - - - - - - -
22/02:30am 18.6 WNW 3 4 1006.4 - 0.0 - - - - - - -
22/02:00am 18.1 CALM 0 3 1006.9 - 0.0 - - - - - - -
22/01:30am 19.2 CALM 0 0 1007.5 - 0.0 - - - - - - -
22/01:00am 19.4 S 2 4 1008.1 - 0.0 - - - - - - -
22/12:30am 20.1 SE 2 5 1008.3 - 0.0 - Partly cloudy - - - - -
22/12:00am 20.2 SE 4 6 1008.7 - 0.0 - - - - - - -
 
Date/Time
CDT
Temp

°C
Wind Pressure Rain
since 9am
mm
Weather Cloud Vis
km
Sea
Height
m
Swell
Dir
 
Speed
knots
Gust
knots
hPa Trend Height
m
Period
s
Dir
21/11:30pm 20.8 ESE 6 7 1009.0 - 0.0 - - - - - - -
21/11:00pm 22.0 ESE 8 10 1009.2 - 0.0 - - - - - - -
21/10:30pm 21.2 ESE 8 10 1009.4 - 0.0 - - - - - - -
21/10:00pm 24.5 SE 8 11 1009.2 - 0.0 - - - - - - -
21/09:30pm 24.8 SE 8 10 1009.2 - 0.0 - - - - - - -
21/09:00pm 25.3 SE 10 13 1009.0 - 0.0 - - - - - - -
21/08:30pm 25.1 SE 8 11 1009.0 - 0.0 - - - - - - -
21/08:00pm 25.8 SE 9 13 1008.9 - 0.0 - - - - - - -
21/07:30pm 26.9 SE 10 14 1008.9 - 0.0 - - - - - - -
21/07:00pm 27.5 SE 10 13 1008.7 - 0.0 - - - - - - -
21/06:30pm 29.8 SE 9 13 1008.7 - 0.0 - - - - - - -
21/06:00pm 29.8 SE 10 12 1008.7 - 0.0 - - - - - - -
21/05:30pm 29.7 SE 10 12 1008.9 - 0.0 - - - - - - -
21/05:00pm 31.2 SE 9 11 1009.0 - 0.0 - - - - - - -
21/04:30pm 30.2 SE 9 12 1009.3 - 0.0 - - - - - - -
21/04:00pm 30.7 SE 6 11 1009.8 - 0.0 - - - - - - -
21/03:30pm 28.7 ESE 8 11 1010.3 - 0.0 - - - - - - -
21/03:00pm 28.7 SE 9 14 1010.6 - 0.0 - - - - - - -
21/02:30pm 29.6 SE 8 11 1010.9 - 0.0 - - - - - - -
21/02:00pm 28.3 ESE 10 13 1011.1 - 0.0 - - - - - - -
21/01:30pm 28.3 ENE 4 6 1011.7 - 0.0 - - - - - - -
21/01:00pm 26.2 ESE 4 8 1012.2 - 0.0 - - - - - - -
21/12:30pm 25.4 SE 5 8 1012.6 - 0.0 - - - - - - -
21/12:00pm 24.0 SE 5 10 1013.1 - 0.0 - - - - - - -
21/11:30am 23.9 ESE 4 6 1013.4 - 0.0 - - - - - - -
21/11:00am 22.0 E 5 7 1013.4 - 0.0 - - - - - - -
21/10:30am 21.6 ESE 6 9 1013.7 - 0.0 - - - - - - -
21/10:00am 20.9 SE 6 11 1013.7 - 0.0 - - - - - - -
21/09:30am 20.5 SSE 6 12 1013.9 - 0.0 - - - - - - -
21/09:00am 19.8 ESE 8 11 1013.7 - 6.6 - Mostly clear - - - - -
21/08:30am 19.2 SE 8 11 1013.7 - 6.6 - Partly cloudy - - - - -
21/08:00am 18.5 SSE 8 10 1013.9 - 6.6 - Partly cloudy - - - - -
21/07:30am 18.0 SSW 6 8 1013.6 - 6.6 - - - - - - -
21/07:00am 15.8 SW 3 4 1013.1 - 6.6 - - - - - - -
21/06:30am 15.2 SSW 5 6 1012.6 - 6.6 - - - - - - -
21/06:00am 16.1 S 5 6 1012.4 - 6.6 - Partly cloudy - - - - -
21/05:30am 16.2 SSE 5 7 1012.0 - 6.6 - - - - - - -
21/05:02am 16.9 SE 7 9 1011.9 - 6.6 - Partly cloudy - - - - -
21/05:00am 17.0 SE 7 9 1011.9 - 6.6 - Partly cloudy - - - - -
21/04:30am 17.1 SSE 7 9 1011.9 - 6.6 - Cloudy - - - - -
21/04:00am 17.2 SSE 5 7 1012.3 - 6.6 - Cloudy - - - - -
21/03:31am 17.2 SE 5 9 1012.3 - 6.6 - Partly cloudy - - - - -
21/03:30am 17.2 SE 6 9 1012.2 - 6.6 - Partly cloudy - - - - -
21/03:00am 17.3 SSE 9 12 1012.1 - 6.6 - Cloudy - - - - -
21/02:30am 17.5 S 8 10 1012.3 - 6.6 - Cloudy - - - - -
21/02:00am 17.6 SSE 10 12 1012.3 - 6.6 - Partly cloudy - - - - -
21/01:30am 18.0 SSE 10 13 1012.5 - 6.6 - Cloudy - - - - -
21/01:00am 17.6 SSE 11 15 1012.4 - 6.6 - - - - - - -
21/12:30am 17.6 SSE 11 13 1012.5 - 6.6 - Partly cloudy - - - - -
21/12:00am 18.1 SSE 11 13 1012.6 - 6.6 - Mostly cloudy - - - - -
 
Date/Time
CDT
Temp

°C
Wind Pressure Rain
since 9am
mm
Weather Cloud Vis
km
Sea
Height
m
Swell
Dir
 
Speed
knots
Gust
knots
hPa Trend Height
m
Period
s
Dir
20/11:30pm 18.1 SSE 12 16 1012.8 - 6.6 - Partly cloudy - - - - -
20/11:00pm 18.4 SSE 14 17 1012.5 - 6.6 - - - - - - -
20/10:30pm 18.5 SSE 15 19 1012.4 - 6.6 - - - - - - -
20/10:00pm 18.6 SSE 16 21 1012.1 - 6.6 - Partly cloudy - - - - -
20/09:30pm 18.9 SSE 14 21 1011.9 - 6.6 - Cloudy - - - - -
20/09:00pm 19.9 S 19 26 1010.9 - 6.6 - Mostly clear - - - - -
20/08:30pm 20.9 S 17 23 1010.3 - 6.6 - - - - - - -
20/08:00pm 21.9 SSE 18 24 1009.2 - 6.6 - - - - - - -
20/07:30pm 23.0 SE 11 16 1009.0 - 6.6 - Partly cloudy - - - - -

Other Formats:

Comma delimited format used in spreadsheet applications
http://www.bom.gov.au/fwo/IDS60701/IDS60701.95666.axf

JavaScript Object Notation format (JSON) in row-major order
http://www.bom.gov.au/fwo/IDS60701/IDS60701.95666.json